N6777F KMEM-KMEM
Flight info
| Callsign | N6777F |
|---|---|
| Flight time | N/A |
| Altitude | VFR/013 |
| Route | PATTERNS |
| Aircraft | BE36/L-DOV/C |
Departure
| Time | 2026-05-04 02:15 |
|---|---|
| Airport | Memphis International Airport (KMEM) |
Arrival
| Time | N/A |
|---|---|
| Airport | Memphis International Airport (KMEM) |
| Time | Latitude | Longitude | Altitude | Speed | Heading |
|---|---|---|---|---|---|
| 2026-05-04 02:02 | 35.05478 | -89.98145 | 292 ft | 0 kts | 91° |
| 2026-05-04 02:03 | 35.05488 | -89.98131 | 293 ft | 8 kts | 359° |
| 2026-05-04 02:04 | 35.05495 | -89.98138 | 296 ft | 0 kts | 285° |
| 2026-05-04 02:06 | 35.05496 | -89.98202 | 289 ft | 14 kts | 270° |
| 2026-05-04 02:06 | 35.05520 | -89.98355 | 283 ft | 17 kts | 329° |
| 2026-05-04 02:06 | 35.05569 | -89.98445 | 282 ft | 10 kts | 278° |
| 2026-05-04 02:07 | 35.05570 | -89.98482 | 281 ft | 12 kts | 256° |
| 2026-05-04 02:07 | 35.05475 | -89.98510 | 280 ft | 21 kts | 180° |
| 2026-05-04 02:07 | 35.05297 | -89.98512 | 281 ft | 30 kts | 178° |
| 2026-05-04 02:07 | 35.05099 | -89.98514 | 289 ft | 28 kts | 181° |
| 2026-05-04 02:08 | 35.04980 | -89.98598 | 293 ft | 16 kts | 211° |
| 2026-05-04 02:08 | 35.04945 | -89.98625 | 293 ft | 1 kts | 225° |
| 2026-05-04 02:08 | 35.04944 | -89.98626 | 293 ft | 0 kts | 227° |
| 2026-05-04 02:09 | 35.04942 | -89.98628 | 293 ft | 1 kts | 224° |
| 2026-05-04 02:10 | 35.04939 | -89.98633 | 293 ft | 5 kts | 242° |
| 2026-05-04 02:10 | 35.04933 | -89.98690 | 293 ft | 9 kts | 255° |
| 2026-05-04 02:10 | 35.04886 | -89.98736 | 293 ft | 12 kts | 196° |
| 2026-05-04 02:10 | 35.04810 | -89.98741 | 292 ft | 23 kts | 180° |
| 2026-05-04 02:11 | 35.04436 | -89.98733 | 328 ft | 76 kts | 185° |
| 2026-05-04 02:11 | 35.04150 | -89.98611 | 293 ft | 68 kts | 41° |
| 2026-05-04 02:11 | 35.04193 | -89.98565 | 293 ft | 0 kts | 42° |
| 2026-05-04 02:12 | 35.04194 | -89.98563 | 293 ft | 1 kts | 31° |
| 2026-05-04 02:12 | 35.04202 | -89.98563 | 292 ft | 0 kts | 326° |
| 2026-05-04 02:12 | 35.04224 | -89.98580 | 291 ft | 11 kts | 333° |
| 2026-05-04 02:12 | 35.04350 | -89.98598 | 289 ft | 25 kts | 1° |
| 2026-05-04 02:13 | 35.04536 | -89.98601 | 292 ft | 27 kts | 1° |
| 2026-05-04 02:13 | 35.04695 | -89.98605 | 291 ft | 20 kts | 357° |
| 2026-05-04 02:13 | 35.04836 | -89.98608 | 292 ft | 21 kts | 358° |
| 2026-05-04 02:13 | 35.04930 | -89.98628 | 293 ft | 7 kts | 314° |
| 2026-05-04 02:14 | 35.04934 | -89.98637 | 293 ft | 0 kts | 274° |
| 2026-05-04 02:14 | 35.04935 | -89.98647 | 293 ft | 7 kts | 272° |
| 2026-05-04 02:14 | 35.04910 | -89.98730 | 295 ft | 15 kts | 218° |
| 2026-05-04 02:14 | 35.04705 | -89.98740 | 291 ft | 60 kts | 178° |
| 2026-05-04 02:15 | 35.04130 | -89.98719 | 393 ft | 96 kts | 182° |
| 2026-05-04 02:15 | 35.03421 | -89.98714 | 640 ft | 108 kts | 181° |
| 2026-05-04 02:15 | 35.02642 | -89.98709 | 838 ft | 113 kts | 182° |
| 2026-05-04 02:15 | 35.01975 | -89.99070 | 1007 ft | 110 kts | 248° |
| 2026-05-04 02:16 | 35.02449 | -89.99660 | 972 ft | 118 kts | 349° |